Terminal Aerodrome Forecast
Issued by NWS

Home | Current Version | Previous Version | Text Only | Print | Product List | Glossary Off
Versions: 1 2 3 4 5 6 7 8 9 10 11 12 13 14 15 16 17 18 19 20 21 22 23 24

000
FTUS43 KLOT 191459 AAA
TAFGYY
TAF AMD
KGYY 191459Z 1915/2012 15006KT 1SM -SHRA BR OVC003
      TEMPO 1915/1919 1/2SM -DZ FG OVC002
     FM191900 19013G20KT 2SM -RA BR BKN008 OVC012 WS020/22050KT
     FM200700 21012KT 1 1/2SM -SHRA BR SCT003 OVC007=

USA.gov is the U.S. government's official web portal to all federal, state and local government web resources and services.